Time;durP1;ratioP1;P1;durP2;ratioP2;P2;SDS_P1;SDS_P2;PMS_P1;PMS_P2;Temp;Humidity;BMP_temperature;BMP_pressure;BME280_temperature;BME280_humidity;BME280_pressure;Samples;Min_cycle;Max_cycle;Signal;HPM_P1;HPM_P2
2022/01/10 00:00:14;;;;;;;5.05;2.70;;;;;;;;;;5032649;28;20146;-58
2022/01/10 00:02:41;;;;;;;9.45;3.40;;;;;;;;;;5011232;28;20025;-58
2022/01/10 00:05:09;;;;;;;10.60;3.40;;;;;;;;;;5013946;28;20077;-58
2022/01/10 00:07:37;;;;;;;11.77;3.00;;;;;;;;;;5033771;28;20037;-58
2022/01/10 00:10:06;;;;;;;9.98;3.50;;;;;;;;;;5012186;28;20044;-58
2022/01/10 00:12:36;;;;;;;11.30;3.13;;;;;;;;;;5032067;28;20577;-58
2022/01/10 00:15:05;;;;;;;15.77;3.00;;;;;;;;;;5034863;28;21014;-57
2022/01/10 00:17:30;;;;;;;12.65;2.90;;;;;;;;;;5010547;28;20029;-58
2022/01/10 00:19:58;;;;;;;23.35;3.47;;;;;;;;;;5012018;28;21268;-57
2022/01/10 00:22:27;;;;;;;17.65;2.58;;;;;;;;;;5024497;28;20037;-59
2022/01/10 00:24:55;;;;;;;11.57;3.15;;;;;;;;;;5012261;28;20033;-59
2022/01/10 00:27:23;;;;;;;17.30;2.97;;;;;;;;;;5032410;28;20130;-59
2022/01/10 00:29:48;;;;;;;8.50;2.67;;;;;;;;;;5033048;28;20044;-60
2022/01/10 00:32:17;;;;;;;15.05;3.22;;;;;;;;;;5032856;28;20060;-58
2022/01/10 00:34:47;;;;;;;10.13;2.60;;;;;;;;;;5032543;28;20033;-59
2022/01/10 00:37:18;;;;;;;14.48;2.47;;;;;;;;;;5015198;28;20029;-57
2022/01/10 00:39:43;;;;;;;14.32;2.08;;;;;;;;;;5012540;28;20181;-60
2022/01/10 00:42:13;;;;;;;8.18;1.98;;;;;;;;;;5031042;28;20171;-57
2022/01/10 00:44:46;;;;;;;5.00;2.42;;;;;;;;;;5014849;28;20033;-57
2022/01/10 00:47:13;;;;;;;13.38;2.22;;;;;;;;;;5030102;28;20024;-59
2022/01/10 00:49:41;;;;;;;7.38;2.50;;;;;;;;;;5009727;28;20076;-57
2022/01/10 00:52:06;;;;;;;14.07;2.40;;;;;;;;;;5031417;28;20040;-59
2022/01/10 00:54:34;;;;;;;5.70;2.42;;;;;;;;;;5012091;28;20461;-56
2022/01/10 00:56:59;;;;;;;11.13;4.13;;;;;;;;;;5031778;28;20066;-59
2022/01/10 00:59:27;;;;;;;11.85;3.03;;;;;;;;;;5031160;28;20029;-58
2022/01/10 01:01:57;;;;;;;6.82;1.77;;;;;;;;;;5011396;28;20052;-58
2022/01/10 01:04:25;;;;;;;6.45;2.15;;;;;;;;;;5033017;28;20048;-58
2022/01/10 01:06:55;;;;;;;4.13;2.50;;;;;;;;;;5031234;28;20052;-56
2022/01/10 01:09:28;;;;;;;13.57;2.45;;;;;;;;;;5009318;28;21011;-59
2022/01/10 01:12:16;;;;;;;13.02;2.90;;;;;;;;;;5030553;28;20028;-59
2022/01/10 01:17:26;;;;;;;13.48;3.30;;;;;;;;;;5012368;28;20041;-57
2022/01/10 01:25:13;;;;;;;12.88;3.72;;;;;;;;;;5027406;28;20036;-57
2022/01/10 01:27:42;;;;;;;10.77;2.00;;;;;;;;;;5026479;28;20395;-59
2022/01/10 01:30:10;;;;;;;7.82;3.10;;;;;;;;;;5031558;28;20920;-56
2022/01/10 01:32:36;;;;;;;6.35;3.38;;;;;;;;;;4992948;28;20045;-57
2022/01/10 01:35:07;;;;;;;16.90;3.15;;;;;;;;;;5011647;28;20275;-57
2022/01/10 01:37:35;;;;;;;8.40;3.20;;;;;;;;;;4990828;28;20449;-57
2022/01/10 01:40:00;;;;;;;18.20;4.82;;;;;;;;;;4993475;28;20032;-57
2022/01/10 01:42:41;;;;;;;13.82;3.72;;;;;;;;;;4987589;28;20488;-57
2022/01/10 01:45:10;;;;;;;15.23;4.15;;;;;;;;;;4992245;28;20029;-57
2022/01/10 01:47:39;;;;;;;18.48;4.72;;;;;;;;;;5011245;28;20057;-57
2022/01/10 01:50:05;;;;;;;8.30;3.83;;;;;;;;;;5008368;28;20056;-60
2022/01/10 01:52:31;;;;;;;14.45;4.30;;;;;;;;;;4989220;28;20400;-57
2022/01/10 01:54:56;;;;;;;12.85;3.83;;;;;;;;;;4973722;28;20037;-58
2022/01/10 01:57:22;;;;;;;9.32;3.88;;;;;;;;;;4987911;28;20036;-58
2022/01/10 01:59:48;;;;;;;14.57;4.47;;;;;;;;;;4994436;28;20136;-57
2022/01/10 02:02:16;;;;;;;8.90;3.47;;;;;;;;;;5008580;28;20089;-57
2022/01/10 02:04:42;;;;;;;10.80;3.85;;;;;;;;;;4991462;28;20045;-57
2022/01/10 02:07:08;;;;;;;13.75;4.28;;;;;;;;;;4991179;28;20120;-57
2022/01/10 02:09:35;;;;;;;18.50;4.15;;;;;;;;;;4989064;28;20041;-57
2022/01/10 02:12:01;;;;;;;13.00;3.75;;;;;;;;;;4992100;28;20040;-57
2022/01/10 02:14:27;;;;;;;13.43;3.75;;;;;;;;;;4979252;28;20037;-57
2022/01/10 02:16:56;;;;;;;16.33;3.80;;;;;;;;;;5013941;28;20025;-58
2022/01/10 02:19:22;;;;;;;9.73;3.38;;;;;;;;;;4982890;28;20042;-58
2022/01/10 02:21:48;;;;;;;13.20;4.03;;;;;;;;;;5236550;22;20435;-58
2022/01/10 02:24:18;;;;;;;10.82;4.05;;;;;;;;;;5085633;27;20043;-58
2022/01/10 02:26:47;;;;;;;15.90;4.13;;;;;;;;;;5087052;27;20027;-58
2022/01/10 02:29:15;;;;;;;15.90;4.63;;;;;;;;;;5067755;28;20040;-56
2022/01/10 02:31:43;;;;;;;9.95;3.72;;;;;;;;;;5071893;27;20043;-57
2022/01/10 02:34:23;;;;;;;6.95;3.70;;;;;;;;;;5087422;27;20035;-57
2022/01/10 02:36:50;;;;;;;13.35;5.13;;;;;;;;;;5086592;27;20043;-56
2022/01/10 02:39:19;;;;;;;13.68;5.70;;;;;;;;;;5072975;27;20680;-58
2022/01/10 02:41:47;;;;;;;20.80;4.75;;;;;;;;;;5053935;27;20047;-57
2022/01/10 02:44:16;;;;;;;13.57;4.13;;;;;;;;;;5040205;28;20043;-58
2022/01/10 02:46:42;;;;;;;17.38;4.45;;;;;;;;;;5056537;27;20644;-58
2022/01/10 02:49:11;;;;;;;11.18;4.43;;;;;;;;;;5067137;27;20042;-58
2022/01/10 02:51:42;;;;;;;10.32;4.65;;;;;;;;;;5068182;27;20474;-58
2022/01/10 02:54:14;;;;;;;8.70;3.92;;;;;;;;;;5070766;27;20095;-58
2022/01/10 02:56:51;;;;;;;12.82;5.07;;;;;;;;;;5082923;27;20043;-58
2022/01/10 02:59:20;;;;;;;22.42;4.82;;;;;;;;;;5086342;27;20137;-57
2022/01/10 03:01:48;;;;;;;16.25;6.40;;;;;;;;;;5073218;27;20039;-58
2022/01/10 03:04:15;;;;;;;11.27;4.53;;;;;;;;;;5073300;27;20230;-57
2022/01/10 03:06:43;;;;;;;10.45;3.55;;;;;;;;;;5068821;27;20062;-57
2022/01/10 03:09:10;;;;;;;23.48;4.78;;;;;;;;;;5087246;27;20020;-59
2022/01/10 03:11:38;;;;;;;16.98;3.78;;;;;;;;;;5067360;27;20168;-59
2022/01/10 03:14:03;;;;;;;13.57;5.07;;;;;;;;;;5089872;27;20047;-59
2022/01/10 03:16:29;;;;;;;18.70;4.13;;;;;;;;;;5088748;27;20502;-57
2022/01/10 03:18:58;;;;;;;13.02;3.92;;;;;;;;;;5085954;27;20035;-60
2022/01/10 03:21:23;;;;;;;11.32;3.92;;;;;;;;;;5067370;27;20031;-58
2022/01/10 03:23:52;;;;;;;12.98;4.90;;;;;;;;;;5083526;27;20036;-58
2022/01/10 03:26:24;;;;;;;16.13;4.55;;;;;;;;;;5063407;28;20047;-58
2022/01/10 03:28:52;;;;;;;;;;;;;;;;;;5083936;28;20035;-59
2022/01/10 03:31:24;;;;;;;9.85;3.65;;;;;;;;;;5070813;28;19978;-60
2022/01/10 03:33:51;;;;;;;11.18;3.80;;;;;;;;;;5085269;28;20054;-59
2022/01/10 03:36:22;;;;;;;15.57;5.07;;;;;;;;;;5060833;28;20117;-60
2022/01/10 03:38:49;;;;;;;17.02;4.57;;;;;;;;;;5051977;28;20040;-59
2022/01/10 03:41:15;;;;;;;17.90;5.28;;;;;;;;;;5082323;28;20108;-57
2022/01/10 03:43:43;;;;;;;11.93;4.88;;;;;;;;;;5080212;28;20059;-59
2022/01/10 03:46:16;;;;;;;12.45;4.57;;;;;;;;;;5081976;28;20039;-58
2022/01/10 03:48:44;;;;;;;10.88;4.40;;;;;;;;;;5066314;28;20043;-58
2022/01/10 03:51:11;;;;;;;5.50;3.22;;;;;;;;;;5084104;28;20031;-58
2022/01/10 03:53:39;;;;;;;12.65;5.93;;;;;;;;;;5061043;28;20031;-59
2022/01/10 03:56:07;;;;;;;16.27;5.55;;;;;;;;;;5083240;28;20039;-59
2022/01/10 03:58:35;;;;;;;14.68;4.50;;;;;;;;;;5068361;28;20112;-60
2022/01/10 04:01:02;;;;;;;18.42;4.57;;;;;;;;;;5059719;28;20052;-61
2022/01/10 04:03:31;;;;;;;16.10;4.78;;;;;;;;;;5083174;28;20031;-59
2022/01/10 04:05:58;;;;;;;8.48;4.13;;;;;;;;;;5065213;28;20410;-60
2022/01/10 04:08:26;;;;;;;20.27;5.03;;;;;;;;;;5067636;28;20046;-59
2022/01/10 04:10:52;;;;;;;10.70;4.43;;;;;;;;;;5065611;28;20183;-60
2022/01/10 04:13:23;;;;;;;22.63;5.70;;;;;;;;;;5067292;28;20035;-59
2022/01/10 04:15:51;;;;;;;11.32;4.63;;;;;;;;;;5082742;28;20028;-59
2022/01/10 04:18:16;;;;;;;17.15;6.00;;;;;;;;;;5083731;27;20101;-60
2022/01/10 04:20:47;;;;;;;17.48;5.10;;;;;;;;;;5081171;27;20506;-60
2022/01/10 04:23:13;;;;;;;15.43;4.75;;;;;;;;;;5065145;28;20059;-60
2022/01/10 04:25:41;;;;;;;10.98;4.95;;;;;;;;;;5080730;28;20016;-59
2022/01/10 04:28:06;;;;;;;18.77;5.45;;;;;;;;;;5063925;28;20032;-60
2022/01/10 04:30:32;;;;;;;14.95;5.15;;;;;;;;;;5083386;28;20085;-60
2022/01/10 04:32:59;;;;;;;13.98;4.97;;;;;;;;;;5057850;28;20972;-59
2022/01/10 04:35:24;;;;;;;24.35;5.80;;;;;;;;;;5071300;28;20165;-59
2022/01/10 04:37:50;;;;;;;15.07;4.75;;;;;;;;;;5082740;28;21259;-59
2022/01/10 04:40:20;;;;;;;20.35;5.28;;;;;;;;;;5082643;28;20040;-60
2022/01/10 04:42:48;;;;;;;13.48;5.15;;;;;;;;;;5060948;28;20096;-59
2022/01/10 04:45:15;;;;;;;21.23;5.82;;;;;;;;;;5063376;28;20420;-59
2022/01/10 04:47:43;;;;;;;14.38;5.05;;;;;;;;;;5064116;28;20067;-59
2022/01/10 04:52:39;;;;;;;20.70;5.82;;;;;;;;;;5082603;28;20498;-59
2022/01/10 04:55:09;;;;;;;19.40;6.28;;;;;;;;;;5082526;28;20054;-59
2022/01/10 04:57:37;;;;;;;21.67;7.57;;;;;;;;;;5047504;28;20055;-59
2022/01/10 05:00:10;;;;;;;16.95;5.95;;;;;;;;;;5032017;28;20040;-59
2022/01/10 05:02:38;;;;;;;19.52;5.68;;;;;;;;;;5081519;28;20070;-60
2022/01/10 05:05:07;;;;;;;17.75;6.25;;;;;;;;;;5080871;28;20027;-60
2022/01/10 05:07:35;;;;;;;16.10;6.13;;;;;;;;;;5062697;28;20024;-60
2022/01/10 05:10:00;;;;;;;17.88;5.72;;;;;;;;;;5063878;28;20570;-58
2022/01/10 05:12:27;;;;;;;15.68;5.70;;;;;;;;;;5064148;28;20043;-58
2022/01/10 05:15:00;;;;;;;14.63;6.13;;;;;;;;;;5080481;28;20027;-59
2022/01/10 05:17:28;;;;;;;23.67;7.20;;;;;;;;;;5082020;28;20032;-60
2022/01/10 05:19:58;;;;;;;19.33;7.00;;;;;;;;;;5062045;28;20028;-59
2022/01/10 05:22:31;;;;;;;25.55;7.35;;;;;;;;;;5064216;28;20055;-59
2022/01/10 05:24:59;;;;;;;20.20;7.47;;;;;;;;;;5062855;28;20065;-59
2022/01/10 05:27:24;;;;;;;20.13;6.95;;;;;;;;;;5082090;28;20452;-60
2022/01/10 05:29:52;;;;;;;18.00;6.97;;;;;;;;;;5048850;28;20446;-59
2022/01/10 05:32:25;;;;;;;22.67;7.32;;;;;;;;;;5065955;28;20031;-59
2022/01/10 05:34:53;;;;;;;27.15;7.63;;;;;;;;;;5080959;28;20036;-59
2022/01/10 05:37:25;;;;;;;21.35;6.88;;;;;;;;;;5081053;28;20032;-59
2022/01/10 05:39:51;;;;;;;16.25;7.40;;;;;;;;;;5082210;28;20028;-58
2022/01/10 05:42:21;;;;;;;25.00;7.75;;;;;;;;;;5062570;28;21632;-59
2022/01/10 05:44:46;;;;;;;22.23;8.00;;;;;;;;;;5064813;28;20040;-59
2022/01/10 05:47:15;;;;;;;22.10;8.77;;;;;;;;;;5046168;28;20032;-59
2022/01/10 05:49:48;;;;;;;20.65;7.85;;;;;;;;;;5080759;28;20024;-59
2022/01/10 05:52:16;;;;;;;22.05;8.45;;;;;;;;;;5065373;28;20027;-58
2022/01/10 05:54:46;;;;;;;20.33;8.88;;;;;;;;;;5068580;28;20456;-59
2022/01/10 05:57:11;;;;;;;18.58;7.93;;;;;;;;;;5065595;28;20084;-59
2022/01/10 05:59:41;;;;;;;28.88;9.32;;;;;;;;;;5045307;28;20027;-58
2022/01/10 06:02:12;;;;;;;16.73;7.07;;;;;;;;;;5062980;28;20019;-57
2022/01/10 06:04:39;;;;;;;21.52;8.60;;;;;;;;;;5073616;28;20080;-59
2022/01/10 06:07:12;;;;;;;28.27;8.95;;;;;;;;;;5063285;28;20036;-58
2022/01/10 06:09:39;;;;;;;23.63;8.88;;;;;;;;;;5081755;28;20107;-59
2022/01/10 06:12:06;;;;;;;17.98;8.00;;;;;;;;;;5077949;28;20037;-59
2022/01/10 06:14:36;;;;;;;22.17;8.70;;;;;;;;;;5046269;28;20047;-58
2022/01/10 06:17:04;;;;;;;24.98;9.68;;;;;;;;;;5081767;28;20028;-59
2022/01/10 06:19:34;;;;;;;19.65;8.40;;;;;;;;;;5079466;28;20028;-59
2022/01/10 06:22:07;;;;;;;24.60;9.98;;;;;;;;;;5078861;28;20504;-60
2022/01/10 06:24:35;;;;;;;32.67;12.55;;;;;;;;;;5063547;28;20059;-59
2022/01/10 06:27:05;;;;;;;32.15;9.65;;;;;;;;;;5059884;28;20028;-60
2022/01/10 06:29:33;;;;;;;25.25;9.85;;;;;;;;;;5064175;28;20081;-58
2022/01/10 06:31:58;;;;;;;29.20;10.27;;;;;;;;;;5080627;28;20040;-58
2022/01/10 06:34:28;;;;;;;24.73;10.82;;;;;;;;;;5065347;28;20032;-58
2022/01/10 06:36:54;;;;;;;22.15;11.02;;;;;;;;;;5065301;28;20036;-58
2022/01/10 06:39:24;;;;;;;22.83;9.68;;;;;;;;;;5046592;28;20067;-59
2022/01/10 06:41:54;;;;;;;28.38;10.18;;;;;;;;;;5058548;28;20035;-59
2022/01/10 06:44:22;;;;;;;46.45;13.32;;;;;;;;;;5064465;28;20157;-58
2022/01/10 06:46:50;;;;;;;24.52;11.18;;;;;;;;;;5079648;28;20028;-58
2022/01/10 06:49:17;;;;;;;33.00;11.35;;;;;;;;;;5079258;28;20046;-59
2022/01/10 06:51:43;;;;;;;23.92;11.55;;;;;;;;;;5061084;28;20027;-58
2022/01/10 06:54:08;;;;;;;27.52;11.23;;;;;;;;;;5081331;28;21994;-58
2022/01/10 06:56:38;;;;;;;29.70;11.32;;;;;;;;;;5057869;28;20197;-59
2022/01/10 06:59:06;;;;;;;24.13;10.45;;;;;;;;;;5077843;28;20142;-58
2022/01/10 07:01:31;;;;;;;32.50;10.38;;;;;;;;;;5062026;28;20059;-59
2022/01/10 07:03:59;;;;;;;30.25;11.38;;;;;;;;;;5082574;28;20031;-59
2022/01/10 07:06:25;;;;;;;36.80;12.75;;;;;;;;;;5068093;28;20050;-59
2022/01/10 07:08:53;;;;;;;25.75;10.43;;;;;;;;;;5082886;28;20040;-59
2022/01/10 07:11:23;;;;;;;28.00;11.02;;;;;;;;;;5050539;28;20032;-58
2022/01/10 07:13:52;;;;;;;25.15;11.95;;;;;;;;;;5080957;28;20036;-59
2022/01/10 07:16:17;;;;;;;27.52;11.65;;;;;;;;;;5063433;28;20100;-59
2022/01/10 07:18:43;;;;;;;26.45;11.57;;;;;;;;;;5085691;28;20150;-58
2022/01/10 07:21:11;;;;;;;34.75;12.35;;;;;;;;;;5065557;28;20051;-59
2022/01/10 07:23:38;;;;;;;27.38;11.60;;;;;;;;;;5069240;28;20042;-59
2022/01/10 07:26:07;;;;;;;23.92;10.18;;;;;;;;;;5061169;28;20039;-59
2022/01/10 07:28:33;;;;;;;26.42;9.98;;;;;;;;;;5083918;27;20035;-59
2022/01/10 07:30:58;;;;;;;27.67;10.05;;;;;;;;;;5048551;28;20055;-60
2022/01/10 07:33:26;;;;;;;30.95;11.55;;;;;;;;;;5082620;28;20040;-60
2022/01/10 07:35:56;;;;;;;22.13;11.65;;;;;;;;;;5062067;28;20048;-58
2022/01/10 07:38:26;;;;;;;25.63;12.05;;;;;;;;;;5067005;28;20391;-58
2022/01/10 07:40:54;;;;;;;30.05;11.20;;;;;;;;;;5049510;28;20035;-58
2022/01/10 07:43:22;;;;;;;25.63;11.25;;;;;;;;;;5067365;28;20028;-59
2022/01/10 07:45:50;;;;;;;26.75;11.85;;;;;;;;;;5065032;28;20035;-59
2022/01/10 07:48:15;;;;;;;29.63;13.18;;;;;;;;;;5081298;28;20245;-59
2022/01/10 07:50:43;;;;;;;24.88;12.02;;;;;;;;;;5084598;28;20028;-59
2022/01/10 07:53:10;;;;;;;29.27;11.85;;;;;;;;;;5057592;28;20051;-58
2022/01/10 07:55:38;;;;;;;33.80;12.88;;;;;;;;;;5051795;28;20039;-59
2022/01/10 07:58:04;;;;;;;26.55;11.30;;;;;;;;;;5080438;27;20048;-60
2022/01/10 08:00:30;;;;;;;34.45;13.23;;;;;;;;;;5061798;28;20519;-57
2022/01/10 08:02:57;;;;;;;28.00;12.40;;;;;;;;;;5056017;28;20396;-58
2022/01/10 08:05:23;;;;;;;34.42;11.95;;;;;;;;;;5063749;28;20125;-59
2022/01/10 08:07:58;;;;;;;25.90;11.88;;;;;;;;;;5082270;28;21008;-58
2022/01/10 08:10:26;;;;;;;24.63;11.98;;;;;;;;;;5083690;28;20044;-59
2022/01/10 08:12:54;;;;;;;29.90;13.32;;;;;;;;;;5052169;28;20035;-59
2022/01/10 08:15:21;;;;;;;27.33;11.60;;;;;;;;;;5080691;28;20139;-59
2022/01/10 08:17:52;;;;;;;28.08;11.05;;;;;;;;;;5082118;27;21061;-58
2022/01/10 08:20:20;;;;;;;27.63;11.20;;;;;;;;;;5081430;28;20036;-58
2022/01/10 08:22:51;;;;;;;32.58;13.50;;;;;;;;;;5082307;28;20428;-59
2022/01/10 08:25:19;;;;;;;32.65;13.15;;;;;;;;;;5066612;27;20165;-59
2022/01/10 08:27:47;;;;;;;31.45;12.63;;;;;;;;;;5070048;28;20378;-58
2022/01/10 08:30:15;;;;;;;33.20;12.95;;;;;;;;;;5069128;28;20032;-58
2022/01/10 08:32:40;;;;;;;29.50;11.43;;;;;;;;;;5066237;28;20998;-58
2022/01/10 08:35:08;;;;;;;30.23;12.10;;;;;;;;;;5064829;28;20039;-58
2022/01/10 08:37:36;;;;;;;30.63;12.63;;;;;;;;;;5083419;28;20790;-58
2022/01/10 08:40:06;;;;;;;38.80;13.52;;;;;;;;;;5081416;28;20154;-58
2022/01/10 08:42:36;;;;;;;30.80;12.10;;;;;;;;;;5062970;28;20039;-58
2022/01/10 08:45:08;;;;;;;31.67;11.00;;;;;;;;;;5080473;28;20064;-58
2022/01/10 08:47:33;;;;;;;29.23;12.45;;;;;;;;;;5049849;28;20032;-59
2022/01/10 08:49:58;;;;;;;29.80;12.73;;;;;;;;;;5049492;28;20034;-59
2022/01/10 08:52:24;;;;;;;32.25;12.50;;;;;;;;;;5032504;28;20503;-58
2022/01/10 08:54:52;;;;;;;29.02;11.77;;;;;;;;;;5063988;28;20038;-59
2022/01/10 08:57:20;;;;;;;34.63;12.05;;;;;;;;;;5061295;28;20023;-58
2022/01/10 08:59:46;;;;;;;25.55;12.52;;;;;;;;;;5080632;28;20047;-58
2022/01/10 09:02:13;;;;;;;34.67;11.80;;;;;;;;;;5062384;28;22631;-59
2022/01/10 09:04:40;;;;;;;24.98;10.50;;;;;;;;;;5063250;28;20068;-59
2022/01/10 09:07:08;;;;;;;24.85;11.02;;;;;;;;;;5082543;28;21035;-59
2022/01/10 09:09:36;;;;;;;41.60;12.77;;;;;;;;;;5084319;28;20032;-58
2022/01/10 09:12:05;;;;;;;32.92;11.82;;;;;;;;;;5062161;28;20028;-59
2022/01/10 09:14:37;;;;;;;30.58;10.32;;;;;;;;;;5083267;28;20040;-59
2022/01/10 09:17:05;;;;;;;23.95;11.50;;;;;;;;;;5081727;28;20036;-58
2022/01/10 09:19:33;;;;;;;30.02;10.95;;;;;;;;;;5049317;28;20039;-58
2022/01/10 09:21:59;;;;;;;31.40;11.70;;;;;;;;;;5070211;28;20043;-59
2022/01/10 09:24:27;;;;;;;27.23;11.88;;;;;;;;;;5052609;28;20101;-58
2022/01/10 09:26:56;;;;;;;29.33;11.73;;;;;;;;;;5063150;28;20032;-58
2022/01/10 09:29:23;;;;;;;22.42;10.45;;;;;;;;;;5048873;28;20103;-58
2022/01/10 09:31:50;;;;;;;27.02;10.73;;;;;;;;;;5081064;28;20678;-57
2022/01/10 09:34:22;;;;;;;25.23;11.15;;;;;;;;;;5081572;28;20028;-58
2022/01/10 09:36:50;;;;;;;28.20;10.40;;;;;;;;;;5081759;28;20039;-58
2022/01/10 09:39:16;;;;;;;26.63;11.10;;;;;;;;;;5063199;28;20050;-57
2022/01/10 09:41:43;;;;;;;24.38;11.90;;;;;;;;;;5062774;28;20281;-58
2022/01/10 09:44:12;;;;;;;23.48;10.27;;;;;;;;;;5081971;28;20040;-57
2022/01/10 09:46:42;;;;;;;37.65;11.55;;;;;;;;;;5065108;28;20110;-57
2022/01/10 09:49:10;;;;;;;21.98;10.68;;;;;;;;;;5081210;28;20028;-57
2022/01/10 09:51:36;;;;;;;22.45;10.52;;;;;;;;;;5072524;28;20032;-57
2022/01/10 09:54:02;;;;;;;30.73;11.95;;;;;;;;;;5081331;28;20031;-58
2022/01/10 09:56:30;;;;;;;27.08;11.10;;;;;;;;;;5063826;28;20028;-57
2022/01/10 09:58:58;;;;;;;28.25;11.35;;;;;;;;;;5080137;28;20035;-57
2022/01/10 10:01:27;;;;;;;22.83;10.77;;;;;;;;;;5081113;28;20027;-57
2022/01/10 10:03:58;;;;;;;26.92;12.48;;;;;;;;;;5078396;28;20410;-57
2022/01/10 10:06:24;;;;;;;24.17;10.65;;;;;;;;;;5077853;28;20088;-57
2022/01/10 10:08:52;;;;;;;23.92;10.63;;;;;;;;;;5079114;28;20028;-57
2022/01/10 10:11:20;;;;;;;25.63;10.88;;;;;;;;;;5077521;28;20128;-57
2022/01/10 10:13:56;;;;;;;19.85;10.18;;;;;;;;;;5048677;28;20035;-57
2022/01/10 10:16:26;;;;;;;27.95;10.20;;;;;;;;;;5080616;28;20027;-57
2022/01/10 10:18:53;;;;;;;30.13;11.95;;;;;;;;;;5061761;28;20462;-57
2022/01/10 10:21:24;;;;;;;28.08;10.98;;;;;;;;;;5079344;28;20035;-57
2022/01/10 10:23:52;;;;;;;20.52;11.60;;;;;;;;;;5078885;28;20780;-57
2022/01/10 10:26:24;;;;;;;23.52;10.30;;;;;;;;;;5079300;28;20470;-57
2022/01/10 10:28:50;;;;;;;30.83;12.13;;;;;;;;;;5046089;28;20050;-57
2022/01/10 10:31:43;;;;;;;30.33;11.15;;;;;;;;;;5062127;28;20266;-57
2022/01/10 10:34:09;;;;;;;29.70;10.57;;;;;;;;;;5076440;28;20512;-56
2022/01/10 10:36:35;;;;;;;24.30;10.13;;;;;;;;;;5065077;28;20070;-57
2022/01/10 10:39:07;;;;;;;30.27;11.65;;;;;;;;;;5071651;28;20044;-57
2022/01/10 10:41:33;;;;;;;24.90;10.80;;;;;;;;;;5085553;28;20539;-57
2022/01/10 10:44:02;;;;;;;28.25;11.05;;;;;;;;;;5084398;28;20036;-56
2022/01/10 10:46:29;;;;;;;30.90;10.75;;;;;;;;;;5048222;28;20569;-56
2022/01/10 10:49:04;;;;;;;23.33;10.23;;;;;;;;;;5083136;28;20031;-57
2022/01/10 10:51:34;;;;;;;29.20;11.48;;;;;;;;;;5068643;27;20100;-56
2022/01/10 10:54:05;;;;;;;26.55;10.40;;;;;;;;;;5083468;28;20059;-56
2022/01/10 10:56:37;;;;;;;23.67;10.37;;;;;;;;;;5081826;27;20043;-56
2022/01/10 10:59:04;;;;;;;24.27;10.60;;;;;;;;;;5082142;27;20056;-56
2022/01/10 11:01:37;;;;;;;20.80;10.02;;;;;;;;;;5081986;28;20672;-56
2022/01/10 11:04:09;;;;;;;20.05;9.55;;;;;;;;;;5064558;28;20459;-56
2022/01/10 11:06:37;;;;;;;25.30;9.07;;;;;;;;;;5074110;28;20023;-57
2022/01/10 11:09:06;;;;;;;22.52;10.25;;;;;;;;;;5063499;28;20032;-57
2022/01/10 11:11:32;;;;;;;23.48;10.73;;;;;;;;;;5067441;27;20063;-54
2022/01/10 11:13:58;;;;;;;22.58;10.68;;;;;;;;;;5061858;28;20590;-55
2022/01/10 11:16:24;;;;;;;28.38;10.18;;;;;;;;;;5049690;28;20185;-57
2022/01/10 11:18:49;;;;;;;24.65;10.15;;;;;;;;;;5066702;28;20084;-56
2022/01/10 11:21:15;;;;;;;24.73;9.93;;;;;;;;;;5065265;28;20043;-54
2022/01/10 11:23:44;;;;;;;23.38;9.90;;;;;;;;;;5063543;28;20048;-58
2022/01/10 11:26:13;;;;;;;24.55;9.35;;;;;;;;;;5083445;28;20034;-54
2022/01/10 11:28:52;;;;;;;27.83;10.45;;;;;;;;;;5047366;28;20031;-56
2022/01/10 11:31:23;;;;;;;21.55;9.50;;;;;;;;;;5065421;28;20047;-56
2022/01/10 11:33:52;;;;;;;19.27;9.55;;;;;;;;;;5080984;28;20051;-55
2022/01/10 11:36:24;;;;;;;28.95;8.55;;;;;;;;;;5062849;28;20106;-55
2022/01/10 11:38:54;;;;;;;21.65;9.55;;;;;;;;;;5083324;28;20442;-55
2022/01/10 11:41:26;;;;;;;21.00;9.65;;;;;;;;;;5080915;27;20148;-55
2022/01/10 11:43:56;;;;;;;20.02;9.27;;;;;;;;;;5066008;28;20035;-55
2022/01/10 11:46:26;;;;;;;23.98;9.52;;;;;;;;;;5081136;28;20195;-55
2022/01/10 11:49:18;;;;;;;23.52;9.18;;;;;;;;;;5047665;28;20043;-55
2022/01/10 11:51:45;;;;;;;22.63;8.95;;;;;;;;;;5079602;27;20039;-55
2022/01/10 11:54:14;;;;;;;30.92;8.75;;;;;;;;;;5082766;28;20032;-56
2022/01/10 11:56:43;;;;;;;21.90;8.70;;;;;;;;;;5083288;28;20035;-54
2022/01/10 11:59:10;;;;;;;23.65;9.50;;;;;;;;;;5083238;28;20035;-55
2022/01/10 12:01:40;;;;;;;23.88;9.50;;;;;;;;;;5061549;28;20126;-54
2022/01/10 12:04:06;;;;;;;23.92;8.20;;;;;;;;;;5079917;28;20146;-57
2022/01/10 12:06:31;;;;;;;20.67;7.07;;;;;;;;;;5080249;27;20084;-53
2022/01/10 12:09:02;;;;;;;12.18;6.07;;;;;;;;;;5083087;28;20019;-55
2022/01/10 12:11:30;;;;;;;13.85;7.50;;;;;;;;;;5079073;28;20035;-55
2022/01/10 12:13:59;;;;;;;18.95;6.85;;;;;;;;;;5081892;28;21664;-55
2022/01/10 12:16:27;;;;;;;21.25;7.45;;;;;;;;;;5063496;28;20342;-56
2022/01/10 12:18:53;;;;;;;24.77;8.23;;;;;;;;;;5067392;28;20043;-55
2022/01/10 12:21:24;;;;;;;15.98;6.78;;;;;;;;;;5065392;28;20028;-55
2022/01/10 12:23:52;;;;;;;16.00;7.38;;;;;;;;;;5082459;28;21118;-55
2022/01/10 12:26:19;;;;;;;16.75;6.88;;;;;;;;;;5065435;28;20050;-55
2022/01/10 12:28:48;;;;;;;15.38;6.85;;;;;;;;;;5062215;28;20034;-56
2022/01/10 12:31:19;;;;;;;17.70;7.57;;;;;;;;;;5043172;28;21002;-56
2022/01/10 12:33:46;;;;;;;21.38;7.72;;;;;;;;;;5080851;28;20130;-55
2022/01/10 12:36:11;;;;;;;24.00;7.35;;;;;;;;;;5080051;28;20040;-57
2022/01/10 12:38:46;;;;;;;21.88;8.40;;;;;;;;;;5082854;28;20028;-56
2022/01/10 12:41:12;;;;;;;23.35;9.70;;;;;;;;;;5063112;28;20031;-55
2022/01/10 12:43:37;;;;;;;20.20;8.82;;;;;;;;;;5059031;28;20495;-56
2022/01/10 12:46:03;;;;;;;20.67;8.15;;;;;;;;;;5064067;28;20479;-56
2022/01/10 12:48:31;;;;;;;20.80;8.10;;;;;;;;;;5061558;28;20031;-55
2022/01/10 12:50:58;;;;;;;16.38;6.88;;;;;;;;;;5081730;28;20499;-55
2022/01/10 12:53:29;;;;;;;16.85;7.75;;;;;;;;;;5062661;28;20047;-56
2022/01/10 12:55:55;;;;;;;20.50;6.72;;;;;;;;;;5081278;28;20036;-56
2022/01/10 12:58:21;;;;;;;16.05;6.82;;;;;;;;;;5081803;28;20035;-56
2022/01/10 13:00:46;;;;;;;21.05;6.90;;;;;;;;;;5047888;28;20036;-55
2022/01/10 13:03:12;;;;;;;19.55;7.25;;;;;;;;;;5079450;28;20840;-55
2022/01/10 13:05:38;;;;;;;13.38;5.78;;;;;;;;;;5057967;28;20552;-56
2022/01/10 13:08:04;;;;;;;17.80;6.35;;;;;;;;;;5060749;28;20172;-56
2022/01/10 13:10:34;;;;;;;15.15;6.65;;;;;;;;;;5083079;28;20124;-56
2022/01/10 13:13:01;;;;;;;18.40;6.78;;;;;;;;;;5081288;28;20686;-57
2022/01/10 13:15:42;;;;;;;19.63;7.22;;;;;;;;;;5082118;28;20031;-56
2022/01/10 13:18:12;;;;;;;16.50;6.63;;;;;;;;;;5083426;28;20035;-56
2022/01/10 13:20:43;;;;;;;16.15;6.60;;;;;;;;;;5081052;28;20445;-56
2022/01/10 13:23:16;;;;;;;18.38;7.95;;;;;;;;;;5067978;28;20390;-56
2022/01/10 13:25:50;;;;;;;18.95;7.53;;;;;;;;;;5084894;28;20055;-56
2022/01/10 13:28:19;;;;;;;18.25;6.65;;;;;;;;;;5065122;28;20019;-55
2022/01/10 13:30:49;;;;;;;12.43;6.45;;;;;;;;;;5064089;28;20482;-56
2022/01/10 13:33:18;;;;;;;21.85;6.70;;;;;;;;;;5046687;28;20059;-56
2022/01/10 13:35:59;;;;;;;19.08;7.05;;;;;;;;;;5083505;28;20155;-56
2022/01/10 13:38:27;;;;;;;22.80;8.07;;;;;;;;;;5082610;28;20063;-54
2022/01/10 13:40:57;;;;;;;21.40;7.95;;;;;;;;;;5083214;28;20649;-55
2022/01/10 13:43:24;;;;;;;17.67;8.23;;;;;;;;;;5060667;28;20028;-56
2022/01/10 13:45:56;;;;;;;17.13;8.23;;;;;;;;;;5080870;28;20874;-56
2022/01/10 13:48:24;;;;;;;21.27;8.63;;;;;;;;;;5082584;28;20032;-55
2022/01/10 13:50:56;;;;;;;16.25;7.57;;;;;;;;;;5065618;28;22221;-55
2022/01/10 13:53:27;;;;;;;20.88;8.43;;;;;;;;;;5082259;28;20036;-56
2022/01/10 13:56:12;;;;;;;24.73;8.85;;;;;;;;;;5065182;28;20043;-56
2022/01/10 13:58:48;;;;;;;23.83;9.32;;;;;;;;;;5063483;28;20126;-56
2022/01/10 14:01:14;;;;;;;25.42;9.32;;;;;;;;;;5082757;28;20142;-55
2022/01/10 14:03:43;;;;;;;22.33;8.65;;;;;;;;;;5082910;28;20073;-56
2022/01/10 14:06:13;;;;;;;18.08;9.18;;;;;;;;;;5062036;28;20519;-55
2022/01/10 14:08:44;;;;;;;28.20;9.73;;;;;;;;;;5082737;28;20031;-55
2022/01/10 14:11:13;;;;;;;17.90;8.68;;;;;;;;;;5065882;28;20073;-56
2022/01/10 14:13:39;;;;;;;22.80;8.52;;;;;;;;;;5069706;28;20051;-56
2022/01/10 14:16:04;;;;;;;20.65;9.05;;;;;;;;;;5070533;28;20558;-54
2022/01/10 14:18:32;;;;;;;23.75;9.05;;;;;;;;;;5065903;28;20032;-56
2022/01/10 14:21:02;;;;;;;21.65;8.88;;;;;;;;;;5067911;28;20091;-56
2022/01/10 14:23:30;;;;;;;23.05;9.25;;;;;;;;;;5066033;28;20039;-55
2022/01/10 14:25:55;;;;;;;27.02;9.00;;;;;;;;;;5084281;27;20474;-55
2022/01/10 14:28:23;;;;;;;19.13;8.82;;;;;;;;;;5065396;28;20111;-56
2022/01/10 14:30:51;;;;;;;16.67;8.32;;;;;;;;;;5083858;28;20071;-57
2022/01/10 14:33:23;;;;;;;19.48;8.13;;;;;;;;;;5066923;28;20122;-56
2022/01/10 14:35:48;;;;;;;26.58;9.38;;;;;;;;;;5067100;28;20042;-57
2022/01/10 14:38:16;;;;;;;25.83;8.95;;;;;;;;;;5047020;28;20031;-56
2022/01/10 14:40:44;;;;;;;25.83;9.40;;;;;;;;;;5082700;27;20703;-56
2022/01/10 14:43:11;;;;;;;28.50;9.25;;;;;;;;;;5080918;28;20039;-55